createdAt,value
2018-09-04T00:01:36.711Z,56.60
2018-09-04T00:04:06.822Z,52.47
2018-09-04T00:06:41.812Z,54.30
2018-09-04T00:09:16.901Z,56.23
2018-09-04T00:11:51.916Z,54.43
2018-09-04T00:14:27.072Z,53.13
2018-09-04T00:17:02.318Z,54.23
2018-09-04T00:19:37.566Z,54.50
2018-09-04T00:22:12.629Z,59.17
2018-09-04T00:24:48.122Z,54.30
2018-09-04T00:27:23.055Z,55.30
2018-09-04T00:29:57.967Z,53.23
2018-09-04T00:32:33.218Z,56.33
2018-09-04T00:35:08.246Z,52.60
2018-09-04T00:37:43.148Z,53.60
2018-09-04T00:40:18.098Z,56.90
2018-09-04T00:42:53.324Z,49.93
2018-09-04T00:45:28.629Z,53.73
2018-09-04T00:48:03.497Z,54.10
2018-09-04T00:50:38.431Z,46.60
2018-09-04T00:53:13.710Z,52.33
2018-09-04T00:55:49.024Z,51.27
2018-09-04T00:58:18.937Z,54.80
2018-09-04T01:00:54.747Z,56.63
2018-09-04T01:03:29.988Z,53.13
2018-09-04T01:06:05.328Z,57.90
2018-09-04T01:08:40.306Z,60.50
2018-09-04T01:11:15.269Z,58.33
2018-09-04T01:13:50.367Z,61.37
2018-09-04T01:16:28.816Z,52.03
2018-09-04T01:19:03.982Z,54.60
2018-09-04T01:21:39.209Z,52.47
2018-09-04T01:24:14.034Z,53.07
2018-09-04T01:26:49.363Z,53.60
2018-09-04T01:29:24.769Z,54.97
2018-09-04T01:32:01.619Z,53.60
2018-09-04T01:34:36.745Z,49.83
2018-09-04T01:37:11.901Z,55.30
2018-09-04T01:39:47.154Z,54.00
2018-09-04T01:42:22.772Z,52.17
2018-09-04T01:44:58.045Z,53.20
2018-09-04T01:47:33.267Z,53.47
2018-09-04T01:50:08.265Z,60.20
2018-09-04T01:52:43.467Z,56.40
2018-09-04T01:55:18.277Z,58.90
2018-09-04T01:57:54.309Z,56.13
2018-09-04T02:00:29.364Z,57.60
2018-09-04T02:03:04.583Z,57.20
2018-09-04T02:05:39.671Z,55.17
2018-09-04T02:08:14.635Z,59.93
2018-09-04T02:10:49.714Z,64.23
2018-09-04T02:13:24.823Z,55.90
2018-09-04T02:16:00.439Z,62.73
2018-09-04T02:18:35.231Z,58.87
2018-09-04T02:21:10.403Z,57.53
2018-09-04T02:23:45.380Z,59.07
2018-09-04T02:26:20.410Z,55.83
2018-09-04T02:28:55.288Z,57.57
2018-09-04T02:31:30.204Z,59.27
2018-09-04T02:34:05.863Z,54.40
2018-09-04T02:36:40.939Z,56.40
2018-09-04T02:39:15.969Z,56.23
2018-09-04T02:41:51.214Z,51.80
2018-09-04T02:44:26.630Z,61.07
2018-09-04T02:47:01.653Z,58.07
2018-09-04T02:49:36.604Z,51.13
2018-09-04T02:52:11.823Z,51.33
2018-09-04T02:54:46.894Z,54.83
2018-09-04T02:57:22.155Z,50.80
2018-09-04T02:59:57.597Z,50.43
2018-09-04T03:02:32.594Z,54.27
2018-09-04T03:05:08.082Z,54.20
2018-09-04T03:07:43.150Z,52.53
2018-09-04T03:10:18.133Z,50.33
2018-09-04T03:12:53.377Z,49.93
2018-09-04T03:15:29.045Z,49.97
2018-09-04T03:18:05.015Z,51.60
2018-09-04T03:20:40.121Z,53.43
2018-09-04T03:23:18.356Z,59.40
2018-09-04T03:25:53.593Z,57.17
2018-09-04T03:28:28.768Z,57.00
2018-09-04T03:31:03.859Z,56.77
2018-09-04T03:33:38.714Z,52.93
2018-09-04T03:36:14.640Z,58.17
2018-09-04T03:38:49.537Z,59.10
2018-09-04T03:41:24.862Z,60.13
2018-09-04T03:44:00.034Z,54.33
2018-09-04T03:46:35.258Z,55.40
2018-09-04T03:49:10.275Z,57.47
2018-09-04T03:51:45.330Z,54.23
2018-09-04T03:54:20.368Z,58.47
2018-09-04T03:56:55.439Z,58.17
2018-09-04T03:59:30.911Z,56.37
2018-09-04T04:02:06.231Z,56.50
2018-09-04T04:04:41.335Z,57.40
2018-09-04T04:07:16.891Z,56.43
2018-09-04T04:09:52.501Z,59.33
2018-09-04T04:12:27.932Z,52.13
2018-09-04T04:15:02.798Z,59.70
2018-09-04T04:17:38.231Z,55.63
2018-09-04T04:20:13.251Z,56.80
2018-09-04T04:22:48.504Z,55.30
2018-09-04T04:25:23.861Z,62.30
2018-09-04T04:27:59.167Z,59.30
2018-09-04T04:30:34.593Z,59.83
2018-09-04T04:33:09.878Z,55.37
2018-09-04T04:35:44.588Z,64.00
2018-09-04T04:38:20.681Z,63.23
2018-09-04T04:40:55.563Z,63.20
2018-09-04T04:43:30.853Z,56.90
2018-09-04T04:46:12.719Z,58.37
2018-09-04T04:48:48.029Z,63.70
2018-09-04T04:51:23.646Z,64.57
2018-09-04T04:53:58.916Z,64.70
2018-09-04T04:56:35.033Z,62.63
2018-09-04T04:59:11.223Z,65.83
2018-09-04T05:01:46.436Z,67.80
2018-09-04T05:04:22.009Z,59.80
2018-09-04T05:06:57.138Z,62.43
2018-09-04T05:09:32.899Z,63.60
2018-09-04T05:12:08.237Z,55.93
2018-09-04T05:14:43.360Z,59.40
2018-09-04T05:17:19.448Z,58.37
2018-09-04T05:19:54.952Z,60.30
2018-09-04T05:22:30.527Z,62.20
2018-09-04T05:25:06.491Z,60.70
2018-09-04T05:27:41.578Z,68.40
2018-09-04T05:30:16.668Z,68.90
2018-09-04T05:33:00.644Z,74.17
2018-09-04T05:35:41.352Z,65.50
2018-09-04T05:38:16.565Z,66.27
2018-09-04T05:40:51.745Z,69.90
2018-09-04T05:43:30.239Z,71.60
2018-09-04T05:46:11.027Z,66.70
2018-09-04T05:48:46.275Z,67.27
2018-09-04T05:51:21.625Z,74.83
2018-09-04T05:53:57.762Z,66.63
2018-09-04T05:56:32.788Z,67.90
2018-09-04T05:59:08.065Z,66.57
2018-09-04T06:01:43.083Z,64.43
2018-09-04T06:04:18.468Z,70.67
2018-09-04T06:06:53.634Z,67.10
2018-09-04T06:09:28.735Z,66.40
2018-09-04T06:12:04.309Z,66.53
2018-09-04T06:14:39.130Z,85.33
2018-09-04T06:17:14.361Z,79.97
2018-09-04T06:19:50.457Z,84.73
2018-09-04T06:22:26.254Z,77.63
2018-09-04T06:25:01.252Z,82.20
2018-09-04T06:27:37.550Z,74.97
2018-09-04T06:30:13.551Z,77.93
2018-09-04T06:32:48.583Z,75.43
2018-09-04T06:35:23.924Z,79.03
2018-09-04T06:37:59.132Z,74.83
2018-09-04T06:40:34.113Z,74.23
2018-09-04T06:43:10.158Z,78.63
2018-09-04T06:45:44.959Z,81.33
2018-09-04T06:48:20.345Z,80.73
2018-09-04T06:50:55.150Z,80.87
2018-09-04T06:53:30.229Z,79.67
2018-09-04T06:56:05.634Z,81.00
2018-09-04T06:58:40.945Z,80.83
2018-09-04T07:01:16.250Z,76.63
2018-09-04T07:03:51.554Z,82.50
2018-09-04T07:06:26.834Z,80.30
2018-09-04T07:09:02.593Z,80.13
2018-09-04T07:11:38.235Z,83.57
2018-09-04T07:14:13.276Z,88.50
2018-09-04T07:16:48.361Z,83.00
2018-09-04T07:19:23.887Z,88.60
2018-09-04T07:21:59.052Z,85.03
2018-09-04T07:24:34.980Z,85.50
2018-09-04T07:27:10.067Z,89.27
2018-09-04T07:29:45.086Z,87.50
2018-09-04T07:32:20.206Z,82.00
2018-09-04T07:34:55.425Z,91.67
2018-09-04T07:37:30.727Z,79.33
2018-09-04T07:40:06.063Z,77.67
2018-09-04T07:42:41.296Z,80.90
2018-09-04T07:45:16.394Z,79.73
2018-09-04T07:47:51.555Z,80.33
2018-09-04T07:50:26.860Z,86.10
2018-09-04T07:53:02.035Z,83.63
2018-09-04T07:55:36.834Z,79.77
2018-09-04T07:58:11.898Z,81.63
2018-09-04T08:00:47.088Z,80.03
2018-09-04T08:03:21.941Z,80.10
2018-09-04T08:05:57.447Z,79.03
2018-09-04T08:08:32.286Z,87.13
2018-09-04T08:11:07.462Z,89.67
2018-09-04T08:13:42.264Z,84.57
2018-09-04T08:16:17.511Z,76.50
2018-09-04T08:18:52.637Z,73.27
2018-09-04T08:21:27.810Z,77.43
2018-09-04T08:24:03.314Z,72.57
2018-09-04T08:26:38.769Z,69.50
2018-09-04T08:29:14.548Z,76.53
2018-09-04T08:31:49.731Z,65.67
2018-09-04T08:34:24.692Z,78.03
2018-09-04T08:37:00.160Z,70.30
2018-09-04T08:39:35.031Z,73.23
2018-09-04T08:42:10.215Z,77.20
2018-09-04T08:44:45.575Z,85.30
2018-09-04T08:47:21.118Z,86.43
2018-09-04T08:49:57.261Z,92.13
2018-09-04T08:52:32.480Z,83.43
2018-09-04T08:55:08.381Z,112.13
2018-09-04T08:57:44.305Z,90.10
2018-09-04T09:00:19.049Z,94.10
2018-09-04T09:02:54.230Z,99.13
2018-09-04T09:05:29.387Z,94.63
2018-09-04T09:08:05.154Z,98.27
2018-09-04T09:10:40.230Z,109.47
2018-09-04T09:13:15.893Z,95.33
2018-09-04T09:15:51.211Z,93.67
2018-09-04T09:18:29.611Z,97.43
2018-09-04T09:21:04.753Z,97.70
2018-09-04T09:23:39.744Z,89.17
2018-09-04T09:26:14.818Z,89.97
2018-09-04T09:28:50.223Z,90.67
2018-09-04T09:31:26.285Z,84.77
2018-09-04T09:34:06.263Z,81.57
2018-09-04T09:36:41.714Z,89.27
2018-09-04T09:39:17.090Z,83.10
2018-09-04T09:41:52.365Z,84.00
2018-09-04T09:44:27.390Z,84.63
2018-09-04T09:47:03.598Z,82.73
2018-09-04T09:49:38.843Z,81.97
2018-09-04T09:52:14.126Z,80.43
2018-09-04T09:54:49.301Z,77.17
2018-09-04T09:57:24.746Z,77.37
2018-09-04T10:00:00.083Z,67.80
2018-09-04T10:02:41.300Z,73.67
2018-09-04T10:05:16.715Z,66.90
2018-09-04T10:07:52.030Z,66.87
2018-09-04T10:10:27.076Z,63.27
2018-09-04T10:13:02.554Z,61.30
2018-09-04T10:15:38.333Z,81.67
2018-09-04T10:18:13.382Z,68.57
2018-09-04T10:20:49.423Z,66.63
2018-09-04T10:23:24.610Z,70.00
2018-09-04T10:26:00.095Z,60.13
2018-09-04T10:28:35.330Z,56.03
2018-09-04T10:31:10.431Z,60.37
2018-09-04T10:33:45.629Z,59.90
2018-09-04T10:36:20.706Z,60.17
2018-09-04T10:39:01.436Z,61.63
2018-09-04T10:41:36.626Z,62.30
2018-09-04T10:44:11.771Z,57.83
2018-09-04T10:46:46.847Z,64.53
2018-09-04T10:49:21.922Z,60.97
2018-09-04T10:51:56.883Z,59.87
2018-09-04T10:54:33.001Z,64.40
2018-09-04T10:57:07.721Z,64.43
2018-09-04T10:59:42.791Z,64.73
2018-09-04T11:02:19.010Z,66.63
2018-09-04T11:04:55.396Z,55.73
2018-09-04T11:07:30.475Z,57.80
2018-09-04T11:10:05.487Z,62.07
2018-09-04T11:12:41.607Z,57.97
2018-09-04T11:15:17.277Z,60.77
2018-09-04T11:17:52.531Z,60.40
2018-09-04T11:20:27.787Z,59.50
2018-09-04T11:23:02.848Z,72.63
2018-09-04T11:25:38.051Z,63.00
2018-09-04T11:28:13.273Z,58.60
2018-09-04T11:30:48.382Z,58.13
2018-09-04T11:33:23.863Z,56.13
2018-09-04T11:35:59.048Z,57.53
2018-09-04T11:38:34.634Z,53.00
2018-09-04T11:41:09.723Z,47.43
2018-09-04T11:43:44.943Z,47.40
2018-09-04T11:46:19.940Z,49.60
2018-09-04T11:48:54.949Z,47.90
2018-09-04T11:51:30.055Z,49.20
2018-09-04T11:54:05.443Z,43.30
2018-09-04T11:56:41.182Z,48.50
2018-09-04T11:59:16.458Z,46.73
2018-09-04T12:01:54.554Z,57.60
2018-09-04T12:04:30.004Z,55.27
2018-09-04T12:07:05.133Z,52.97
2018-09-04T12:09:40.332Z,60.27
2018-09-04T12:12:20.989Z,56.30
2018-09-04T12:14:56.097Z,58.33
2018-09-04T12:17:31.226Z,43.90
2018-09-04T12:20:47.207Z,52.70
2018-09-04T12:23:22.243Z,45.07
2018-09-04T12:26:00.261Z,46.63
2018-09-04T12:28:36.142Z,51.27
2018-09-04T12:31:11.376Z,49.37
2018-09-04T12:33:46.496Z,42.20
2018-09-04T12:36:21.967Z,47.80
2018-09-04T12:38:57.169Z,46.83
2018-09-04T12:41:32.356Z,47.13
2018-09-04T12:44:07.637Z,46.27
2018-09-04T12:46:42.613Z,41.50
2018-09-04T12:49:17.912Z,41.10
2018-09-04T12:51:52.957Z,45.20
2018-09-04T12:54:28.164Z,41.63
2018-09-04T12:57:03.478Z,42.73
2018-09-04T12:59:38.717Z,45.60
2018-09-04T13:02:13.952Z,45.93
2018-09-04T13:04:49.036Z,49.60
2018-09-04T13:07:24.366Z,48.00
2018-09-04T13:09:59.341Z,45.67
2018-09-04T13:12:34.751Z,43.97
2018-09-04T13:15:10.354Z,40.63
2018-09-04T13:17:45.358Z,35.73
2018-09-04T13:20:20.115Z,40.97
2018-09-04T13:22:55.817Z,37.03
2018-09-04T13:25:30.981Z,39.60
2018-09-04T13:28:07.145Z,47.20
2018-09-04T13:30:42.609Z,43.40
2018-09-04T13:33:17.779Z,41.97
2018-09-04T13:35:57.059Z,40.57
2018-09-04T13:38:32.349Z,46.70
2018-09-04T13:41:08.667Z,40.10
2018-09-04T13:43:44.106Z,43.60
2018-09-04T13:46:19.291Z,47.07
2018-09-04T13:48:54.215Z,46.23
2018-09-04T13:51:29.309Z,47.03
2018-09-04T13:54:03.791Z,47.13
2018-09-04T13:56:38.920Z,45.90
2018-09-04T13:59:14.257Z,49.40
2018-09-04T14:01:49.700Z,46.70
2018-09-04T14:04:24.625Z,45.27
2018-09-04T14:07:00.610Z,51.33
2018-09-04T14:09:35.515Z,43.37
2018-09-04T14:12:10.685Z,44.07
2018-09-04T14:14:45.899Z,44.43
2018-09-04T14:17:21.535Z,47.20
2018-09-04T14:19:56.590Z,39.80
2018-09-04T14:22:32.122Z,43.90
2018-09-04T14:25:07.441Z,48.90
2018-09-04T14:27:42.461Z,42.10
2018-09-04T14:30:17.695Z,41.03
2018-09-04T14:32:52.852Z,47.60
2018-09-04T14:35:28.436Z,49.63
2018-09-04T14:38:03.335Z,43.00
2018-09-04T14:40:38.389Z,42.00
2018-09-04T14:43:13.428Z,42.80
2018-09-04T14:45:48.756Z,42.43
2018-09-04T14:48:25.035Z,45.73
2018-09-04T14:51:00.012Z,38.30
2018-09-04T14:53:34.923Z,36.93
2018-09-04T14:56:09.866Z,40.00
2018-09-04T14:58:44.997Z,42.90
2018-09-04T15:01:20.241Z,42.23
2018-09-04T15:03:55.396Z,40.80
2018-09-04T15:06:30.686Z,34.80
2018-09-04T15:09:00.281Z,37.23
2018-09-04T15:11:36.641Z,35.10
2018-09-04T15:14:11.726Z,45.40
2018-09-04T15:16:44.743Z,46.30
2018-09-04T15:19:20.123Z,39.80
2018-09-04T15:21:55.252Z,43.17
2018-09-04T15:24:30.793Z,30.57
2018-09-04T15:27:06.142Z,28.60
2018-09-04T15:29:41.977Z,25.23
2018-09-04T15:32:19.563Z,35.00
2018-09-04T15:34:54.490Z,23.17
2018-09-04T15:37:31.999Z,28.60
2018-09-04T15:40:01.586Z,38.70
2018-09-04T15:42:31.627Z,45.10
2018-09-04T15:45:01.538Z,44.53
2018-09-04T15:47:31.102Z,51.90
2018-09-04T15:50:01.216Z,46.30
2018-09-04T15:52:31.262Z,38.50
2018-09-04T15:55:01.006Z,46.53
2018-09-04T15:57:30.392Z,46.63
2018-09-04T16:00:00.924Z,47.63
2018-09-04T16:02:36.234Z,55.53
2018-09-04T16:05:11.992Z,67.43
2018-09-04T16:07:47.389Z,58.13
2018-09-04T16:10:22.510Z,61.93
2018-09-04T16:12:58.170Z,59.80
2018-09-04T16:15:33.113Z,57.87
2018-09-04T16:18:08.643Z,48.50
2018-09-04T16:20:43.525Z,51.07
2018-09-04T16:23:19.915Z,48.43
2018-09-04T16:25:55.706Z,49.00
2018-09-04T16:28:31.106Z,44.83
2018-09-04T16:31:06.540Z,43.17
2018-09-04T16:33:42.232Z,40.20
2018-09-04T16:36:17.677Z,47.93
2018-09-04T16:38:52.868Z,50.67
2018-09-04T16:41:27.859Z,48.67
2018-09-04T16:44:04.526Z,45.90
2018-09-04T16:46:39.959Z,43.10
2018-09-04T16:49:15.361Z,39.57
2018-09-04T16:51:51.455Z,42.17
2018-09-04T16:54:27.023Z,37.10
2018-09-04T16:57:02.206Z,44.40
2018-09-04T16:59:37.505Z,44.30
2018-09-04T17:02:12.722Z,46.63
2018-09-04T17:04:48.677Z,50.20
2018-09-04T17:07:23.788Z,43.30
2018-09-04T17:09:58.898Z,45.00
2018-09-04T17:12:34.184Z,43.57
2018-09-04T17:15:10.705Z,46.60
2018-09-04T17:17:45.851Z,46.83
2018-09-04T17:20:21.214Z,49.40
2018-09-04T17:22:56.255Z,54.60
2018-09-04T17:25:25.499Z,52.60
2018-09-04T17:28:00.852Z,47.83
2018-09-04T17:30:35.984Z,55.47
2018-09-04T17:33:10.933Z,49.27
2018-09-04T17:35:46.654Z,51.20
2018-09-04T17:38:22.064Z,50.20
2018-09-04T17:40:57.893Z,50.50
2018-09-04T17:43:33.004Z,52.53
2018-09-04T17:46:08.689Z,54.83
2018-09-04T17:48:44.267Z,56.40
2018-09-04T17:51:19.395Z,47.20
2018-09-04T17:53:54.897Z,49.37
2018-09-04T17:56:30.863Z,47.13
2018-09-04T17:59:06.543Z,50.80
2018-09-04T18:01:41.581Z,53.70
2018-09-04T18:04:17.341Z,50.93
2018-09-04T18:06:52.749Z,48.40
2018-09-04T18:09:27.804Z,50.63
2018-09-04T18:12:03.293Z,52.13
2018-09-04T18:14:38.778Z,53.20
2018-09-04T18:17:14.220Z,57.63
2018-09-04T18:19:49.453Z,56.30
2018-09-04T18:22:25.443Z,52.33
2018-09-04T18:25:01.094Z,58.13
2018-09-04T18:27:41.376Z,57.93
2018-09-04T18:30:17.078Z,53.53
2018-09-04T18:32:53.110Z,58.90
2018-09-04T18:35:28.111Z,48.37
2018-09-04T18:38:03.122Z,50.53
2018-09-04T18:40:38.437Z,53.30
2018-09-04T18:43:13.592Z,44.70
2018-09-04T18:45:50.497Z,49.60
2018-09-04T18:48:26.184Z,43.37
2018-09-04T18:51:01.409Z,40.87
2018-09-04T18:53:37.074Z,39.83
2018-09-04T18:56:12.369Z,41.33
2018-09-04T18:58:42.029Z,41.23
2018-09-04T19:01:11.861Z,47.70
2018-09-04T19:03:42.380Z,40.60
2018-09-04T19:06:12.232Z,45.03
2018-09-04T19:08:42.238Z,47.60
2018-09-04T19:11:12.406Z,43.43
2018-09-04T19:13:42.551Z,44.43
2018-09-04T19:16:12.179Z,44.00
2018-09-04T19:18:41.915Z,41.97
2018-09-04T19:21:11.449Z,40.30
2018-09-04T19:23:40.959Z,38.83
2018-09-04T19:26:15.680Z,40.27
2018-09-04T19:28:50.759Z,42.93
2018-09-04T19:31:25.808Z,46.73
2018-09-04T19:34:01.860Z,42.20
2018-09-04T19:36:37.201Z,39.30
2018-09-04T19:39:12.493Z,44.73
2018-09-04T19:41:47.852Z,41.17
2018-09-04T19:44:23.663Z,40.50
2018-09-04T19:46:59.064Z,42.93
2018-09-04T19:49:34.056Z,49.67
2018-09-04T19:52:09.301Z,45.27
2018-09-04T19:54:44.722Z,46.07
2018-09-04T19:57:20.050Z,43.53
2018-09-04T19:59:55.572Z,46.17
2018-09-04T20:02:25.645Z,49.67
2018-09-04T20:05:01.514Z,50.07
2018-09-04T20:07:40.538Z,47.20
2018-09-04T20:10:16.357Z,51.13
2018-09-04T20:12:52.624Z,51.03
2018-09-04T20:15:27.991Z,51.20
2018-09-04T20:18:03.902Z,51.07
2018-09-04T20:20:39.095Z,51.50
2018-09-04T20:23:14.142Z,54.87
2018-09-04T20:25:49.510Z,54.50
2018-09-04T20:28:31.228Z,52.27
2018-09-04T20:31:06.645Z,52.07
2018-09-04T20:33:42.173Z,50.73
2018-09-04T20:36:16.910Z,56.57
2018-09-04T20:38:52.173Z,48.63
2018-09-04T20:41:27.146Z,49.63
2018-09-04T20:44:02.087Z,52.80
2018-09-04T20:46:37.058Z,49.80
2018-09-04T20:49:12.676Z,48.93
2018-09-04T20:51:48.518Z,50.93
2018-09-04T20:54:24.192Z,50.10
2018-09-04T20:57:38.837Z,53.57
2018-09-04T21:00:26.528Z,52.43
2018-09-04T21:03:12.687Z,49.40
2018-09-04T21:05:58.969Z,52.03
2018-09-04T21:09:17.369Z,51.70
2018-09-04T21:11:52.541Z,51.23
2018-09-04T21:14:27.864Z,47.43
2018-09-04T21:17:03.219Z,50.63
2018-09-04T21:19:38.263Z,51.73
2018-09-04T21:22:13.531Z,51.43
2018-09-04T21:24:49.056Z,46.30
2018-09-04T21:27:24.448Z,49.23
2018-09-04T21:29:59.529Z,48.93
2018-09-04T21:32:34.320Z,53.57
2018-09-04T21:35:10.174Z,51.20
2018-09-04T21:37:45.856Z,55.20
2018-09-04T21:40:20.554Z,49.53
2018-09-04T21:42:55.838Z,48.40
2018-09-04T21:45:30.850Z,53.83
2018-09-04T21:48:06.012Z,49.70
2018-09-04T21:50:41.232Z,49.40
2018-09-04T21:53:17.291Z,55.93
2018-09-04T21:55:52.322Z,51.47
2018-09-04T21:58:27.553Z,50.33
2018-09-04T22:01:02.869Z,53.00
2018-09-04T22:03:38.349Z,56.00
2018-09-04T22:06:13.717Z,57.77
2018-09-04T22:08:48.745Z,52.47
2018-09-04T22:11:23.727Z,55.40
2018-09-04T22:13:58.506Z,53.10
2018-09-04T22:16:33.758Z,57.07
2018-09-04T22:19:09.819Z,50.83
2018-09-04T22:21:45.029Z,54.03
2018-09-04T22:24:20.093Z,54.77
2018-09-04T22:26:55.235Z,53.53
2018-09-04T22:29:30.133Z,56.07
2018-09-04T22:32:05.261Z,47.33
2018-09-04T22:34:40.998Z,49.83
2018-09-04T22:37:16.342Z,53.93
2018-09-04T22:39:51.545Z,58.87
2018-09-04T22:42:26.390Z,57.07
2018-09-04T22:45:01.563Z,53.67
2018-09-04T22:47:36.598Z,54.53
2018-09-04T22:50:17.002Z,68.27
2018-09-04T22:52:52.226Z,62.23
2018-09-04T22:55:27.223Z,65.93
2018-09-04T22:58:02.903Z,64.00
2018-09-04T23:00:37.949Z,76.33
2018-09-04T23:03:12.891Z,72.10
2018-09-04T23:05:47.877Z,89.63
2018-09-04T23:08:22.867Z,97.33
2018-09-04T23:10:57.984Z,88.87
2018-09-04T23:13:32.607Z,100.57
2018-09-04T23:16:08.285Z,87.00
2018-09-04T23:18:43.426Z,83.67
2018-09-04T23:21:19.075Z,85.10
2018-09-04T23:23:54.437Z,84.50
2018-09-04T23:26:29.566Z,100.13
2018-09-04T23:29:05.377Z,91.50
2018-09-04T23:31:40.354Z,99.23
2018-09-04T23:34:15.835Z,97.87
2018-09-04T23:36:50.805Z,108.27
2018-09-04T23:39:25.835Z,115.20
2018-09-04T23:42:00.649Z,100.90
2018-09-04T23:44:36.074Z,107.90
2018-09-04T23:47:10.984Z,107.40
2018-09-04T23:49:46.288Z,92.03
2018-09-04T23:52:21.252Z,93.10
2018-09-04T23:54:56.232Z,92.00
2018-09-04T23:57:31.421Z,89.67
